createdAt,value
2019-04-03T00:03:16.014Z,1.23
2019-04-03T00:05:45.358Z,1.20
2019-04-03T00:08:14.650Z,1.50
2019-04-03T00:10:44.463Z,1.30
2019-04-03T00:13:13.743Z,1.50
2019-04-03T00:15:44.746Z,1.40
2019-04-03T00:18:16.039Z,1.60
2019-04-03T00:23:33.488Z,1.40
2019-04-03T00:26:02.770Z,1.00
2019-04-03T00:28:32.364Z,1.20
2019-04-03T00:31:01.672Z,1.07
2019-04-03T00:36:19.639Z,1.40
2019-04-03T00:41:43.904Z,1.20
2019-04-03T00:44:13.194Z,1.40
2019-04-03T00:46:42.775Z,1.40
2019-04-03T00:49:12.034Z,1.50
2019-04-03T00:51:41.468Z,1.17
2019-04-03T00:54:10.736Z,1.20
2019-04-03T00:56:40.136Z,1.43
2019-04-03T00:59:09.371Z,1.63
2019-04-03T01:01:38.995Z,1.23
2019-04-03T01:04:08.283Z,1.30
2019-04-03T01:06:37.956Z,1.30
2019-04-03T01:09:47.489Z,1.37
2019-04-03T01:12:17.070Z,1.80
2019-04-03T01:17:29.541Z,1.70
2019-04-03T01:19:58.876Z,1.40
2019-04-03T01:22:47.251Z,1.43
2019-04-03T01:25:16.850Z,1.33
2019-04-03T01:27:46.364Z,1.50
2019-04-03T01:30:16.037Z,1.40
2019-04-03T01:32:46.625Z,1.60
2019-04-03T01:35:17.383Z,0.80
2019-04-03T01:37:47.859Z,1.57
2019-04-03T01:40:57.777Z,1.60
2019-04-03T01:43:27.135Z,1.77
2019-04-03T01:45:56.954Z,1.57
2019-04-03T01:48:28.461Z,1.53
2019-04-03T01:50:59.556Z,1.57
2019-04-03T01:53:32.168Z,1.40
2019-04-03T01:56:00.957Z,1.40
2019-04-03T01:58:30.222Z,1.57
2019-04-03T02:01:00.141Z,2.03
2019-04-03T02:03:29.455Z,1.80
2019-04-03T02:05:59.003Z,2.00
2019-04-03T02:08:28.331Z,1.67
2019-04-03T02:10:57.880Z,1.50
2019-04-03T02:16:34.597Z,1.57
2019-04-03T02:19:03.880Z,1.70
2019-04-03T02:21:33.165Z,1.70
2019-04-03T02:24:02.480Z,1.60
2019-04-03T02:26:32.704Z,1.40
2019-04-03T02:29:14.033Z,1.57
2019-04-03T02:31:43.354Z,1.67
2019-04-03T02:34:12.716Z,1.77
2019-04-03T02:36:44.404Z,1.80
2019-04-03T02:39:13.068Z,1.60
2019-04-03T02:41:42.578Z,1.50
2019-04-03T02:44:51.908Z,1.30
2019-04-03T02:47:22.836Z,1.30
2019-04-03T02:49:52.400Z,1.73
2019-04-03T02:52:25.366Z,1.57
2019-04-03T02:55:34.199Z,1.43
2019-04-03T02:58:03.735Z,1.37
2019-04-03T03:00:34.910Z,1.77
2019-04-03T03:03:04.220Z,1.80
2019-04-03T03:05:33.625Z,1.57
2019-04-03T03:08:03.043Z,1.70
2019-04-03T03:11:12.066Z,1.67
2019-04-03T03:13:41.346Z,1.60
2019-04-03T03:16:10.989Z,1.70
2019-04-03T03:24:38.725Z,2.03
2019-04-03T03:30:37.179Z,1.70
2019-04-03T03:32:49.499Z,1.67
2019-04-03T03:35:43.971Z,1.63
2019-04-03T03:38:10.719Z,1.60
2019-04-03T03:40:59.317Z,1.27
2019-04-03T03:43:29.167Z,2.03
2019-04-03T03:46:19.107Z,1.60
2019-04-03T03:52:09.949Z,1.67
2019-04-03T03:54:59.734Z,1.50
2019-04-03T04:00:52.257Z,1.60
2019-04-03T04:03:21.628Z,1.80
2019-04-03T04:05:53.747Z,1.53
2019-04-03T04:08:22.018Z,1.97
2019-04-03T04:11:31.913Z,1.70
2019-04-03T04:14:02.099Z,1.80
2019-04-03T04:16:50.387Z,2.03
2019-04-03T04:19:40.745Z,2.27
2019-04-03T04:22:10.218Z,2.10
2019-04-03T04:24:40.055Z,1.50
2019-04-03T04:27:09.360Z,1.93
2019-04-03T04:29:41.082Z,2.20
2019-04-03T04:32:10.091Z,1.33
2019-04-03T04:34:39.587Z,1.93
2019-04-03T04:37:09.034Z,2.33
2019-04-03T04:39:39.948Z,2.03
2019-04-03T04:42:09.258Z,1.73
2019-04-03T04:44:38.902Z,2.03
2019-04-03T04:47:09.661Z,2.03
2019-04-03T04:49:38.942Z,1.60
2019-04-03T04:52:08.323Z,2.13
2019-04-03T04:54:37.637Z,1.83
2019-04-03T05:00:21.501Z,1.77
2019-04-03T05:02:51.490Z,1.70
2019-04-03T05:05:21.976Z,1.80
2019-04-03T05:07:51.392Z,2.30
2019-04-03T05:10:20.823Z,2.27
2019-04-03T05:12:50.371Z,2.10
2019-04-03T05:15:23.270Z,2.20
2019-04-03T05:17:50.839Z,2.00
2019-04-03T05:22:55.709Z,1.70
2019-04-03T05:25:25.965Z,2.10
2019-04-03T05:27:55.605Z,2.13
2019-04-03T05:30:44.259Z,2.10
2019-04-03T05:33:34.065Z,1.90
2019-04-03T05:36:05.081Z,1.67
2019-04-03T05:38:37.317Z,2.27
2019-04-03T05:41:27.455Z,2.03
2019-04-03T05:44:14.625Z,1.80
2019-04-03T05:46:43.955Z,2.10
2019-04-03T05:49:13.284Z,2.37
2019-04-03T05:51:42.602Z,1.90
2019-04-03T05:54:30.877Z,1.97
2019-04-03T05:57:00.225Z,1.67
2019-04-03T05:59:32.675Z,1.60
2019-04-03T06:02:13.528Z,2.23
2019-04-03T06:04:31.847Z,2.03
2019-04-03T06:07:01.306Z,2.20
2019-04-03T06:09:31.051Z,2.07
2019-04-03T06:12:00.355Z,1.60
2019-04-03T06:14:29.896Z,2.50
2019-04-03T06:17:18.172Z,2.50
2019-04-03T06:19:47.671Z,2.67
2019-04-03T06:22:21.530Z,2.23
2019-04-03T06:24:49.787Z,1.80
2019-04-03T06:27:19.987Z,2.50
2019-04-03T06:29:53.474Z,2.17
2019-04-03T06:35:10.134Z,2.37
2019-04-03T06:37:39.579Z,2.30
2019-04-03T06:40:08.953Z,2.50
2019-04-03T06:42:38.442Z,2.60
2019-04-03T06:45:28.220Z,2.53
2019-04-03T06:47:57.529Z,2.30
2019-04-03T06:50:26.900Z,2.90
2019-04-03T06:52:56.390Z,2.80
2019-04-03T06:55:27.264Z,2.47
2019-04-03T06:57:56.579Z,2.40
2019-04-03T07:00:25.987Z,2.30
2019-04-03T07:03:14.373Z,2.40
2019-04-03T07:05:43.686Z,2.73
2019-04-03T07:08:13.109Z,2.33
2019-04-03T07:16:06.029Z,2.13
2019-04-03T07:18:36.988Z,2.47
2019-04-03T07:23:54.724Z,2.73
2019-04-03T07:26:43.019Z,2.47
2019-04-03T07:29:15.804Z,2.40
2019-04-03T07:31:43.457Z,2.40
2019-04-03T07:34:13.077Z,2.70
2019-04-03T07:36:44.693Z,2.50
2019-04-03T07:39:32.661Z,2.77
2019-04-03T07:42:03.725Z,2.53
2019-04-03T07:44:33.012Z,2.60
2019-04-03T07:47:04.277Z,2.70
2019-04-03T07:49:33.746Z,2.70
2019-04-03T07:52:22.215Z,2.23
2019-04-03T07:54:52.870Z,2.60
2019-04-03T07:57:22.352Z,2.37
2019-04-03T08:00:11.143Z,2.93
2019-04-03T08:02:45.198Z,2.57
2019-04-03T08:05:12.080Z,2.70
2019-04-03T08:10:49.383Z,3.10
2019-04-03T08:13:18.611Z,2.70
2019-04-03T08:15:48.858Z,2.77
2019-04-03T08:18:20.422Z,2.80
2019-04-03T08:20:49.374Z,2.70
2019-04-03T08:23:18.724Z,2.73
2019-04-03T08:25:49.098Z,3.00
2019-04-03T08:28:19.587Z,3.00
2019-04-03T08:31:11.492Z,3.20
2019-04-03T08:33:41.021Z,3.10
2019-04-03T08:36:22.831Z,2.87
2019-04-03T08:38:44.067Z,3.03
2019-04-03T08:43:48.617Z,2.77
2019-04-03T08:46:18.271Z,2.67
2019-04-03T08:48:47.586Z,3.57
2019-04-03T08:51:36.413Z,3.50
2019-04-03T08:54:09.817Z,2.77
2019-04-03T08:56:38.012Z,3.50
2019-04-03T09:04:59.430Z,3.47
2019-04-03T09:07:51.834Z,3.70
2019-04-03T09:10:24.599Z,3.43
2019-04-03T09:15:46.300Z,3.83
2019-04-03T09:18:15.663Z,3.60
2019-04-03T09:20:45.495Z,4.00
2019-04-03T09:23:16.087Z,4.13
2019-04-03T09:25:45.450Z,3.83
2019-04-03T09:28:33.897Z,3.93
2019-04-03T09:31:03.523Z,3.70
2019-04-03T09:33:53.082Z,4.10
2019-04-03T09:36:22.575Z,4.40
2019-04-03T09:38:51.855Z,4.43
2019-04-03T09:41:21.520Z,3.60
2019-04-03T09:43:53.401Z,3.63
2019-04-03T09:46:21.956Z,4.03
2019-04-03T09:48:51.629Z,4.00
2019-04-03T09:51:41.440Z,3.63
2019-04-03T09:54:10.878Z,3.47
2019-04-03T09:56:54.857Z,3.57
2019-04-03T09:59:11.323Z,3.67
2019-04-03T10:01:40.751Z,4.40
2019-04-03T10:04:10.168Z,3.80
2019-04-03T10:06:39.547Z,4.23
2019-04-03T10:09:11.751Z,4.70
2019-04-03T10:11:40.168Z,3.87
2019-04-03T10:14:09.488Z,4.33
2019-04-03T10:16:38.759Z,3.97
2019-04-03T10:19:08.057Z,4.17
2019-04-03T10:21:37.445Z,4.73
2019-04-03T10:24:06.986Z,4.57
2019-04-03T10:26:39.216Z,3.93
2019-04-03T10:29:07.512Z,4.27
2019-04-03T10:31:37.256Z,5.03
2019-04-03T10:34:25.844Z,4.37
2019-04-03T10:36:55.162Z,4.80
2019-04-03T10:39:24.550Z,4.53
2019-04-03T10:41:53.989Z,4.53
2019-04-03T10:44:23.357Z,4.80
2019-04-03T10:46:52.786Z,5.23
2019-04-03T10:49:22.125Z,4.83
2019-04-03T10:52:12.643Z,4.87
2019-04-03T10:54:41.482Z,5.03
2019-04-03T10:57:10.788Z,5.30
2019-04-03T10:59:40.252Z,5.00
2019-04-03T11:02:09.673Z,5.27
2019-04-03T11:04:38.998Z,5.30
2019-04-03T11:07:27.190Z,4.77
2019-04-03T11:09:56.488Z,5.10
2019-04-03T11:12:25.915Z,5.37
2019-04-03T11:14:55.247Z,4.80
2019-04-03T11:17:44.066Z,5.20
2019-04-03T11:20:54.066Z,4.70
2019-04-03T11:23:36.465Z,4.87
2019-04-03T11:25:54.645Z,5.90
2019-04-03T11:28:42.959Z,4.77
2019-04-03T11:31:23.925Z,5.23
2019-04-03T11:33:45.879Z,5.13
2019-04-03T11:36:14.615Z,4.77
2019-04-03T11:38:43.904Z,5.70
2019-04-03T11:41:32.360Z,5.40
2019-04-03T11:44:01.869Z,4.80
2019-04-03T11:46:31.185Z,5.87
2019-04-03T11:49:01.132Z,6.10
2019-04-03T11:51:33.319Z,5.97
2019-04-03T11:54:01.474Z,5.13
2019-04-03T11:56:50.069Z,6.43
2019-04-03T11:59:22.775Z,5.60
2019-04-03T12:01:51.807Z,6.10
2019-04-03T12:04:21.282Z,6.43
2019-04-03T12:06:52.841Z,6.60
2019-04-03T12:09:23.425Z,5.33
2019-04-03T12:11:54.533Z,6.20
2019-04-03T12:14:23.741Z,6.20
2019-04-03T12:16:53.021Z,6.03
2019-04-03T12:19:41.334Z,5.73
2019-04-03T12:22:10.945Z,6.13
2019-04-03T12:24:40.496Z,5.43
2019-04-03T12:27:10.007Z,5.77
2019-04-03T12:29:39.646Z,6.30
2019-04-03T12:32:09.860Z,6.07
2019-04-03T12:34:40.460Z,6.07
2019-04-03T12:37:29.012Z,5.93
2019-04-03T12:40:00.916Z,6.40
2019-04-03T12:42:29.965Z,5.53
2019-04-03T12:44:59.797Z,5.93
2019-04-03T12:50:06.575Z,5.63
2019-04-03T12:52:35.918Z,6.13
2019-04-03T12:55:25.961Z,5.70
2019-04-03T12:58:14.608Z,5.63
2019-04-03T13:00:46.179Z,5.70
2019-04-03T13:03:16.825Z,6.10
2019-04-03T13:05:48.593Z,5.33
2019-04-03T13:08:19.598Z,5.10
2019-04-03T13:10:49.247Z,5.27
2019-04-03T13:13:19.247Z,5.47
2019-04-03T13:18:55.800Z,5.80
2019-04-03T13:21:25.093Z,5.53
2019-04-03T13:23:54.566Z,4.97
2019-04-03T13:26:24.951Z,4.87
2019-04-03T13:28:55.452Z,5.22
2019-04-03T13:31:26.277Z,5.90
2019-04-03T13:36:32.543Z,5.87
2019-04-03T13:39:02.148Z,5.20
2019-04-03T13:41:34.148Z,5.67
2019-04-03T13:44:02.734Z,5.42
2019-04-03T13:46:32.489Z,5.83
2019-04-03T13:49:03.606Z,5.33
2019-04-03T13:51:34.369Z,5.17
2019-04-03T13:54:06.974Z,5.27
2019-04-03T13:56:34.942Z,5.40
2019-04-03T13:59:04.689Z,5.00
2019-04-03T14:01:35.782Z,5.50
2019-04-03T14:04:05.090Z,5.13
2019-04-03T14:06:36.235Z,5.42
2019-04-03T14:09:50.646Z,5.30
2019-04-03T14:12:17.969Z,5.20
2019-04-03T14:14:47.921Z,5.50
2019-04-03T14:17:18.784Z,5.43
2019-04-03T14:19:51.571Z,5.47
2019-04-03T14:22:20.691Z,5.97
2019-04-03T14:24:52.533Z,6.20
2019-04-03T14:27:24.684Z,5.97
2019-04-03T14:29:52.263Z,5.67
2019-04-03T14:32:22.556Z,5.40
2019-04-03T14:35:40.480Z,5.85
2019-04-03T14:37:43.089Z,5.17
2019-04-03T14:40:51.721Z,5.40
2019-04-03T14:43:22.363Z,5.87
2019-04-03T14:45:52.102Z,6.20
2019-04-03T14:48:21.988Z,5.87
2019-04-03T14:51:11.347Z,5.70
2019-04-03T14:53:41.616Z,5.27
2019-04-03T14:56:11.064Z,5.50
2019-04-03T14:58:59.858Z,5.63
2019-04-03T15:01:29.278Z,5.73
2019-04-03T15:04:00.746Z,4.93
2019-04-03T15:06:30.090Z,5.73
2019-04-03T15:08:59.353Z,4.87
2019-04-03T15:11:28.669Z,5.20
2019-04-03T15:13:58.369Z,5.63
2019-04-03T15:16:31.803Z,4.83
2019-04-03T15:21:35.621Z,5.33
2019-04-03T15:27:00.756Z,5.50
2019-04-03T15:29:31.814Z,5.00
2019-04-03T15:34:36.385Z,5.13
2019-04-03T15:37:06.148Z,4.70
2019-04-03T15:39:36.824Z,5.20
2019-04-03T15:42:06.695Z,5.27
2019-04-03T15:44:37.480Z,5.40
2019-04-03T15:47:09.245Z,4.63
2019-04-03T15:49:59.213Z,5.33
2019-04-03T15:52:49.301Z,5.93
2019-04-03T15:55:57.229Z,4.50
2019-04-03T15:58:27.263Z,5.33
2019-04-03T16:00:58.342Z,4.23
2019-04-03T16:03:27.664Z,5.50
2019-04-03T16:05:57.582Z,4.50
2019-04-03T16:08:28.808Z,4.73
2019-04-03T16:10:58.847Z,5.17
2019-04-03T16:13:48.136Z,5.30
2019-04-03T16:16:18.380Z,5.10
2019-04-03T16:21:23.799Z,4.57
2019-04-03T16:24:13.428Z,4.87
2019-04-03T16:26:43.913Z,5.53
2019-04-03T16:29:13.254Z,5.50
2019-04-03T16:31:42.869Z,4.87
2019-04-03T16:34:13.309Z,5.43
2019-04-03T16:36:44.146Z,4.87
2019-04-03T16:39:17.423Z,5.23
2019-04-03T16:41:45.911Z,4.53
2019-04-03T16:44:15.277Z,5.10
2019-04-03T16:46:44.568Z,4.53
2019-04-03T16:49:13.973Z,4.70
2019-04-03T16:51:44.728Z,4.73
2019-04-03T16:54:34.394Z,4.57
2019-04-03T16:57:04.539Z,4.80
2019-04-03T16:59:36.170Z,5.03
2019-04-03T17:02:24.752Z,5.30
2019-04-03T17:04:55.192Z,5.13
2019-04-03T17:07:24.543Z,4.63
2019-04-03T17:09:54.090Z,4.77
2019-04-03T17:13:02.732Z,4.73
2019-04-03T17:15:35.117Z,5.00
2019-04-03T17:18:03.482Z,5.13
2019-04-03T17:20:33.292Z,4.63
2019-04-03T17:23:05.353Z,4.77
2019-04-03T17:25:45.791Z,4.47
2019-04-03T17:28:09.426Z,4.70
2019-04-03T17:30:38.553Z,4.27
2019-04-03T17:33:08.362Z,4.90
2019-04-03T17:35:39.163Z,4.53
2019-04-03T17:38:27.699Z,5.03
2019-04-03T17:40:57.016Z,4.13
2019-04-03T17:46:34.051Z,4.93
2019-04-03T17:49:03.520Z,4.40
2019-04-03T17:51:53.392Z,4.80
2019-04-03T17:54:22.834Z,4.50
2019-04-03T17:57:13.447Z,4.63
2019-04-03T17:59:45.053Z,5.00
2019-04-03T18:02:14.471Z,4.50
2019-04-03T18:04:46.113Z,4.80
2019-04-03T18:10:29.916Z,4.27
2019-04-03T18:12:59.257Z,4.40
2019-04-03T18:15:28.752Z,4.37
2019-04-03T18:18:17.251Z,4.17
2019-04-03T18:20:46.803Z,4.07
2019-04-03T18:23:35.147Z,4.30
2019-04-03T18:28:59.890Z,4.40
2019-04-03T18:34:51.293Z,5.43
2019-04-03T18:37:21.040Z,4.53
2019-04-03T18:39:51.523Z,4.63
2019-04-03T18:42:21.419Z,4.93
2019-04-03T18:44:50.884Z,4.53
2019-04-03T18:47:41.602Z,4.63
2019-04-03T18:50:10.731Z,4.90
2019-04-03T18:52:40.166Z,4.90
2019-04-03T18:55:09.950Z,4.43
2019-04-03T18:57:39.250Z,5.00
2019-04-03T19:00:09.877Z,4.70
2019-04-03T19:02:39.368Z,4.57
2019-04-03T19:08:18.120Z,4.60
2019-04-03T19:11:09.649Z,4.97
2019-04-03T19:13:38.818Z,4.83
2019-04-03T19:19:07.454Z,4.40
2019-04-03T19:21:28.695Z,4.43
2019-04-03T19:23:59.166Z,4.67
2019-04-03T19:26:30.044Z,4.13
2019-04-03T19:28:59.624Z,5.27
2019-04-03T19:31:28.987Z,5.03
2019-04-03T19:33:58.327Z,5.30
2019-04-03T19:36:29.550Z,5.07
2019-04-03T19:38:58.677Z,4.80
2019-04-03T19:41:28.087Z,4.70
2019-04-03T19:43:57.450Z,5.17
2019-04-03T19:46:26.766Z,4.57
2019-04-03T19:48:56.768Z,5.40
2019-04-03T19:51:27.420Z,4.80
2019-04-03T19:56:45.013Z,5.10
2019-04-03T19:59:14.344Z,4.70
2019-04-03T20:01:43.694Z,5.20
2019-04-03T20:04:15.787Z,4.87
2019-04-03T20:06:44.029Z,4.90
2019-04-03T20:09:13.583Z,4.20
2019-04-03T20:11:42.886Z,5.67
2019-04-03T20:14:12.343Z,4.97
2019-04-03T20:16:41.715Z,5.30
2019-04-03T20:19:11.451Z,5.17
2019-04-03T20:24:16.126Z,4.40
2019-04-03T20:26:46.668Z,4.90
2019-04-03T20:29:16.471Z,5.27
2019-04-03T20:31:45.987Z,5.03
2019-04-03T20:34:15.294Z,4.53
2019-04-03T20:36:44.801Z,5.20
2019-04-03T20:39:14.332Z,5.37
2019-04-03T20:42:23.030Z,5.00
2019-04-03T20:44:52.425Z,5.20
2019-04-03T20:47:22.219Z,5.30
2019-04-03T20:49:51.656Z,5.23
2019-04-03T20:52:21.017Z,5.57
2019-04-03T20:54:52.841Z,5.23
2019-04-03T20:57:22.046Z,5.13
2019-04-03T21:00:30.659Z,5.40
2019-04-03T21:08:31.557Z,5.23
2019-04-03T21:11:02.263Z,5.67
2019-04-03T21:13:32.039Z,4.90
2019-04-03T21:16:32.550Z,5.50
2019-04-03T21:18:51.833Z,5.37
2019-04-03T21:21:21.133Z,6.03
2019-04-03T21:23:52.420Z,5.80
2019-04-03T21:26:21.846Z,5.20
2019-04-03T21:28:51.183Z,5.93
2019-04-03T21:31:20.647Z,5.87
2019-04-03T21:34:08.991Z,5.90
2019-04-03T21:36:38.791Z,5.17
2019-04-03T21:39:09.049Z,4.87
2019-04-03T21:41:38.395Z,5.17
2019-04-03T21:44:07.868Z,5.90
2019-04-03T21:46:39.613Z,5.63
2019-04-03T21:49:10.900Z,5.50
2019-04-03T21:51:40.177Z,5.63
2019-04-03T21:54:09.581Z,6.20
2019-04-03T21:56:38.886Z,5.53
2019-04-03T21:59:09.008Z,5.40
2019-04-03T22:01:39.359Z,6.20
2019-04-03T22:04:08.646Z,5.87
2019-04-03T22:06:57.768Z,5.13
2019-04-03T22:09:28.818Z,5.50
2019-04-03T22:12:18.584Z,5.70
2019-04-03T22:14:47.873Z,5.00
2019-04-03T22:17:36.213Z,5.97
2019-04-03T22:20:24.557Z,6.17
2019-04-03T22:22:53.906Z,6.13
2019-04-03T22:25:23.187Z,5.60
2019-04-03T22:27:52.570Z,6.13
2019-04-03T22:30:22.328Z,6.30
2019-04-03T22:32:54.005Z,6.43
2019-04-03T22:35:23.918Z,6.27
2019-04-03T22:37:53.695Z,5.87
2019-04-03T22:40:42.210Z,6.37
2019-04-03T22:43:11.537Z,6.05
2019-04-03T22:45:41.099Z,5.93
2019-04-03T22:48:10.395Z,6.03
2019-04-03T22:50:40.081Z,6.47
2019-04-03T22:53:10.670Z,6.47
2019-04-03T22:55:59.481Z,5.87
2019-04-03T22:58:29.094Z,6.30
2019-04-03T23:00:59.201Z,6.63
2019-04-03T23:03:29.594Z,6.13
2019-04-03T23:05:58.953Z,6.13
2019-04-03T23:08:28.411Z,6.13
2019-04-03T23:11:39.482Z,6.07
2019-04-03T23:14:08.905Z,5.87
2019-04-03T23:16:38.304Z,6.03
2019-04-03T23:19:07.632Z,6.10
2019-04-03T23:21:37.001Z,5.93
2019-04-03T23:24:06.326Z,6.67
2019-04-03T23:26:35.770Z,6.67
2019-04-03T23:29:05.788Z,6.03
2019-04-03T23:31:54.006Z,5.97
2019-04-03T23:34:23.340Z,6.00
2019-04-03T23:36:54.271Z,6.17
2019-04-03T23:39:23.982Z,6.37
2019-04-03T23:41:53.288Z,6.30
2019-04-03T23:44:23.078Z,6.20
2019-04-03T23:46:52.426Z,5.97
2019-04-03T23:49:21.944Z,5.53
2019-04-03T23:51:51.244Z,5.60
2019-04-03T23:54:20.933Z,6.67
2019-04-03T23:56:50.204Z,6.50
2019-04-03T23:59:19.848Z,5.97
